sensor_id;sensor_type;location;lat;lon;timestamp;P1;durP1;ratioP1;P2;durP2;ratioP2
44430;SDS011;30135;47.866;-4.222;2023-02-23T00:01:33;4.32;;;1.65;;
44430;SDS011;30135;47.866;-4.222;2023-02-23T00:03:59;5.65;;;2.63;;
44430;SDS011;30135;47.866;-4.222;2023-02-23T00:06:26;6.32;;;2.25;;
44430;SDS011;30135;47.866;-4.222;2023-02-23T00:08:54;4.10;;;1.90;;
44430;SDS011;30135;47.866;-4.222;2023-02-23T00:11:22;6.05;;;1.98;;
44430;SDS011;30135;47.866;-4.222;2023-02-23T00:13:51;5.33;;;0.97;;
44430;SDS011;30135;47.866;-4.222;2023-02-23T00:16:19;7.95;;;1.90;;
44430;SDS011;30135;47.866;-4.222;2023-02-23T00:18:48;4.50;;;1.73;;
44430;SDS011;30135;47.866;-4.222;2023-02-23T00:21:22;6.03;;;1.98;;
44430;SDS011;30135;47.866;-4.222;2023-02-23T00:23:54;7.68;;;1.90;;
44430;SDS011;30135;47.866;-4.222;2023-02-23T00:26:24;4.80;;;1.65;;
44430;SDS011;30135;47.866;-4.222;2023-02-23T00:28:59;11.52;;;2.10;;
44430;SDS011;30135;47.866;-4.222;2023-02-23T00:31:28;5.38;;;1.52;;
44430;SDS011;30135;47.866;-4.222;2023-02-23T00:33:55;2.15;;;1.02;;
44430;SDS011;30135;47.866;-4.222;2023-02-23T00:36:25;7.53;;;1.38;;
44430;SDS011;30135;47.866;-4.222;2023-02-23T00:38:56;5.32;;;1.27;;
44430;SDS011;30135;47.866;-4.222;2023-02-23T00:41:24;3.63;;;1.30;;
44430;SDS011;30135;47.866;-4.222;2023-02-23T00:46:23;10.00;;;1.60;;
44430;SDS011;30135;47.866;-4.222;2023-02-23T00:48:53;12.30;;;1.33;;
44430;SDS011;30135;47.866;-4.222;2023-02-23T00:51:22;8.52;;;1.40;;
44430;SDS011;30135;47.866;-4.222;2023-02-23T00:53:57;8.13;;;1.92;;
44430;SDS011;30135;47.866;-4.222;2023-02-23T00:56:25;9.60;;;2.08;;
44430;SDS011;30135;47.866;-4.222;2023-02-23T00:58:52;4.15;;;1.42;;
44430;SDS011;30135;47.866;-4.222;2023-02-23T01:01:20;8.88;;;2.05;;
44430;SDS011;30135;47.866;-4.222;2023-02-23T01:03:47;5.07;;;1.63;;
44430;SDS011;30135;47.866;-4.222;2023-02-23T01:06:14;2.97;;;0.90;;
44430;SDS011;30135;47.866;-4.222;2023-02-23T01:08:42;3.03;;;1.40;;
44430;SDS011;30135;47.866;-4.222;2023-02-23T01:11:14;8.02;;;1.17;;
44430;SDS011;30135;47.866;-4.222;2023-02-23T01:13:45;9.80;;;1.60;;
44430;SDS011;30135;47.866;-4.222;2023-02-23T01:16:14;8.48;;;1.60;;
44430;SDS011;30135;47.866;-4.222;2023-02-23T01:18:44;7.43;;;1.27;;
44430;SDS011;30135;47.866;-4.222;2023-02-23T01:23:46;4.60;;;1.02;;
44430;SDS011;30135;47.866;-4.222;2023-02-23T01:26:24;8.27;;;1.13;;
44430;SDS011;30135;47.866;-4.222;2023-02-23T01:28:56;6.15;;;1.73;;
44430;SDS011;30135;47.866;-4.222;2023-02-23T01:31:26;2.20;;;0.82;;
44430;SDS011;30135;47.866;-4.222;2023-02-23T01:33:54;4.35;;;1.25;;
44430;SDS011;30135;47.866;-4.222;2023-02-23T01:36:23;10.73;;;1.02;;
44430;SDS011;30135;47.866;-4.222;2023-02-23T01:38:53;6.93;;;1.75;;
44430;SDS011;30135;47.866;-4.222;2023-02-23T01:41:21;7.53;;;1.17;;
44430;SDS011;30135;47.866;-4.222;2023-02-23T01:43:54;3.33;;;1.33;;
44430;SDS011;30135;47.866;-4.222;2023-02-23T01:46:55;6.38;;;1.80;;
44430;SDS011;30135;47.866;-4.222;2023-02-23T01:49:23;9.10;;;1.42;;
44430;SDS011;30135;47.866;-4.222;2023-02-23T01:52:09;2.75;;;1.23;;
44430;SDS011;30135;47.866;-4.222;2023-02-23T01:54:43;3.45;;;1.15;;
44430;SDS011;30135;47.866;-4.222;2023-02-23T01:57:14;10.50;;;2.80;;
44430;SDS011;30135;47.866;-4.222;2023-02-23T01:59:43;10.93;;;1.67;;
44430;SDS011;30135;47.866;-4.222;2023-02-23T02:02:15;5.97;;;1.50;;
44430;SDS011;30135;47.866;-4.222;2023-02-23T02:04:45;6.78;;;1.27;;
44430;SDS011;30135;47.866;-4.222;2023-02-23T02:07:22;3.53;;;0.90;;
44430;SDS011;30135;47.866;-4.222;2023-02-23T02:09:53;5.80;;;1.55;;
44430;SDS011;30135;47.866;-4.222;2023-02-23T02:12:36;3.95;;;1.23;;
44430;SDS011;30135;47.866;-4.222;2023-02-23T02:15:04;3.88;;;1.13;;
44430;SDS011;30135;47.866;-4.222;2023-02-23T02:26:50;5.00;;;1.55;;
44430;SDS011;30135;47.866;-4.222;2023-02-23T02:41:24;5.30;;;2.35;;
44430;SDS011;30135;47.866;-4.222;2023-02-23T02:46:41;11.70;;;2.53;;
44430;SDS011;30135;47.866;-4.222;2023-02-23T02:54:50;3.53;;;1.33;;
44430;SDS011;30135;47.866;-4.222;2023-02-23T02:57:37;5.65;;;1.75;;
44430;SDS011;30135;47.866;-4.222;2023-02-23T03:00:05;6.47;;;1.92;;
44430;SDS011;30135;47.866;-4.222;2023-02-23T03:02:50;5.15;;;1.77;;
44430;SDS011;30135;47.866;-4.222;2023-02-23T03:08:36;8.00;;;2.25;;
44430;SDS011;30135;47.866;-4.222;2023-02-23T03:11:39;4.70;;;1.30;;
44430;SDS011;30135;47.866;-4.222;2023-02-23T03:14:40;7.15;;;1.73;;
44430;SDS011;30135;47.866;-4.222;2023-02-23T03:21:57;4.85;;;1.65;;
44430;SDS011;30135;47.866;-4.222;2023-02-23T03:25:44;10.85;;;1.55;;
44430;SDS011;30135;47.866;-4.222;2023-02-23T03:28:17;4.68;;;1.42;;
44430;SDS011;30135;47.866;-4.222;2023-02-23T03:38:28;3.75;;;1.48;;
44430;SDS011;30135;47.866;-4.222;2023-02-23T03:41:25;5.68;;;2.00;;
44430;SDS011;30135;47.866;-4.222;2023-02-23T03:44:12;12.13;;;1.50;;
44430;SDS011;30135;47.866;-4.222;2023-02-23T03:47:02;2.25;;;1.17;;
44430;SDS011;30135;47.866;-4.222;2023-02-23T03:49:48;2.72;;;1.20;;
44430;SDS011;30135;47.866;-4.222;2023-02-23T03:52:35;5.28;;;1.73;;
44430;SDS011;30135;47.866;-4.222;2023-02-23T03:55:29;4.80;;;1.40;;
44430;SDS011;30135;47.866;-4.222;2023-02-23T03:58:21;5.07;;;2.30;;
44430;SDS011;30135;47.866;-4.222;2023-02-23T04:01:11;8.18;;;1.70;;
44430;SDS011;30135;47.866;-4.222;2023-02-23T04:03:58;10.05;;;1.92;;
44430;SDS011;30135;47.866;-4.222;2023-02-23T04:06:44;7.82;;;1.85;;
44430;SDS011;30135;47.866;-4.222;2023-02-23T04:09:30;4.75;;;2.35;;
44430;SDS011;30135;47.866;-4.222;2023-02-23T04:12:18;4.38;;;1.58;;
44430;SDS011;30135;47.866;-4.222;2023-02-23T04:15:16;5.15;;;1.27;;
44430;SDS011;30135;47.866;-4.222;2023-02-23T04:17:53;4.05;;;0.90;;
44430;SDS011;30135;47.866;-4.222;2023-02-23T04:20:20;2.75;;;0.90;;
44430;SDS011;30135;47.866;-4.222;2023-02-23T04:22:47;4.00;;;1.00;;
44430;SDS011;30135;47.866;-4.222;2023-02-23T04:25:13;10.27;;;1.30;;
44430;SDS011;30135;47.866;-4.222;2023-02-23T04:27:40;6.60;;;1.02;;
44430;SDS011;30135;47.866;-4.222;2023-02-23T04:30:06;4.55;;;1.20;;
44430;SDS011;30135;47.866;-4.222;2023-02-23T04:32:35;3.30;;;1.23;;
44430;SDS011;30135;47.866;-4.222;2023-02-23T04:35:02;2.70;;;1.23;;
44430;SDS011;30135;47.866;-4.222;2023-02-23T04:37:28;2.47;;;1.13;;
44430;SDS011;30135;47.866;-4.222;2023-02-23T04:39:54;4.00;;;0.93;;
44430;SDS011;30135;47.866;-4.222;2023-02-23T04:42:20;5.47;;;1.38;;
44430;SDS011;30135;47.866;-4.222;2023-02-23T04:44:47;2.28;;;1.17;;
44430;SDS011;30135;47.866;-4.222;2023-02-23T04:47:13;4.20;;;1.17;;
44430;SDS011;30135;47.866;-4.222;2023-02-23T04:49:40;2.63;;;1.00;;
44430;SDS011;30135;47.866;-4.222;2023-02-23T04:52:09;7.10;;;1.75;;
44430;SDS011;30135;47.866;-4.222;2023-02-23T04:54:39;4.00;;;0.93;;
44430;SDS011;30135;47.866;-4.222;2023-02-23T04:57:06;5.35;;;2.08;;
44430;SDS011;30135;47.866;-4.222;2023-02-23T04:59:32;3.75;;;1.08;;
44430;SDS011;30135;47.866;-4.222;2023-02-23T05:01:59;4.53;;;1.45;;
44430;SDS011;30135;47.866;-4.222;2023-02-23T05:04:25;4.97;;;1.73;;
44430;SDS011;30135;47.866;-4.222;2023-02-23T05:06:51;9.95;;;1.25;;
44430;SDS011;30135;47.866;-4.222;2023-02-23T05:09:17;2.55;;;1.30;;
44430;SDS011;30135;47.866;-4.222;2023-02-23T05:11:43;5.97;;;1.13;;
44430;SDS011;30135;47.866;-4.222;2023-02-23T05:14:10;2.80;;;1.20;;
44430;SDS011;30135;47.866;-4.222;2023-02-23T05:16:36;3.33;;;0.70;;
44430;SDS011;30135;47.866;-4.222;2023-02-23T05:19:03;5.32;;;1.80;;
44430;SDS011;30135;47.866;-4.222;2023-02-23T05:21:29;3.38;;;1.27;;
44430;SDS011;30135;47.866;-4.222;2023-02-23T05:23:55;5.97;;;1.10;;
44430;SDS011;30135;47.866;-4.222;2023-02-23T05:26:21;7.18;;;1.23;;
44430;SDS011;30135;47.866;-4.222;2023-02-23T05:28:48;11.85;;;1.35;;
44430;SDS011;30135;47.866;-4.222;2023-02-23T05:31:14;2.85;;;1.08;;
44430;SDS011;30135;47.866;-4.222;2023-02-23T05:33:40;6.53;;;1.67;;
44430;SDS011;30135;47.866;-4.222;2023-02-23T05:36:13;6.85;;;1.65;;
44430;SDS011;30135;47.866;-4.222;2023-02-23T05:38:41;4.07;;;1.40;;
44430;SDS011;30135;47.866;-4.222;2023-02-23T05:41:13;2.72;;;0.82;;
44430;SDS011;30135;47.866;-4.222;2023-02-23T05:43:43;9.13;;;1.30;;
44430;SDS011;30135;47.866;-4.222;2023-02-23T05:46:10;3.38;;;1.45;;
44430;SDS011;30135;47.866;-4.222;2023-02-23T05:48:40;5.10;;;1.55;;
44430;SDS011;30135;47.866;-4.222;2023-02-23T05:51:07;2.65;;;1.35;;
44430;SDS011;30135;47.866;-4.222;2023-02-23T05:53:36;13.32;;;2.90;;
44430;SDS011;30135;47.866;-4.222;2023-02-23T05:56:03;4.80;;;2.30;;
44430;SDS011;30135;47.866;-4.222;2023-02-23T05:58:32;3.15;;;1.60;;
44430;SDS011;30135;47.866;-4.222;2023-02-23T06:00:58;4.40;;;1.70;;
44430;SDS011;30135;47.866;-4.222;2023-02-23T06:03:25;6.57;;;1.90;;
44430;SDS011;30135;47.866;-4.222;2023-02-23T06:05:51;3.92;;;2.00;;
44430;SDS011;30135;47.866;-4.222;2023-02-23T06:08:19;6.32;;;4.07;;
44430;SDS011;30135;47.866;-4.222;2023-02-23T06:10:45;4.00;;;1.70;;
44430;SDS011;30135;47.866;-4.222;2023-02-23T06:13:12;7.78;;;2.65;;
44430;SDS011;30135;47.866;-4.222;2023-02-23T06:15:39;5.93;;;1.65;;
44430;SDS011;30135;47.866;-4.222;2023-02-23T06:18:05;7.35;;;1.65;;
44430;SDS011;30135;47.866;-4.222;2023-02-23T06:20:33;4.30;;;2.13;;
44430;SDS011;30135;47.866;-4.222;2023-02-23T06:23:00;3.90;;;2.33;;
44430;SDS011;30135;47.866;-4.222;2023-02-23T06:25:26;4.75;;;1.92;;
44430;SDS011;30135;47.866;-4.222;2023-02-23T06:27:52;12.65;;;3.05;;
44430;SDS011;30135;47.866;-4.222;2023-02-23T06:30:18;5.40;;;2.22;;
44430;SDS011;30135;47.866;-4.222;2023-02-23T06:32:44;7.22;;;1.80;;
44430;SDS011;30135;47.866;-4.222;2023-02-23T06:35:11;5.03;;;1.90;;
44430;SDS011;30135;47.866;-4.222;2023-02-23T06:37:37;3.30;;;1.65;;
44430;SDS011;30135;47.866;-4.222;2023-02-23T06:40:03;2.67;;;1.73;;
44430;SDS011;30135;47.866;-4.222;2023-02-23T06:42:30;5.07;;;1.33;;
44430;SDS011;30135;47.866;-4.222;2023-02-23T06:44:56;11.05;;;2.47;;
44430;SDS011;30135;47.866;-4.222;2023-02-23T06:47:22;10.50;;;2.50;;
44430;SDS011;30135;47.866;-4.222;2023-02-23T06:49:55;14.57;;;1.98;;
44430;SDS011;30135;47.866;-4.222;2023-02-23T06:52:21;3.80;;;1.52;;
44430;SDS011;30135;47.866;-4.222;2023-02-23T06:54:49;4.78;;;2.10;;
44430;SDS011;30135;47.866;-4.222;2023-02-23T06:57:15;6.78;;;2.28;;
44430;SDS011;30135;47.866;-4.222;2023-02-23T06:59:41;4.80;;;1.80;;
44430;SDS011;30135;47.866;-4.222;2023-02-23T07:02:09;9.50;;;3.53;;
44430;SDS011;30135;47.866;-4.222;2023-02-23T07:04:36;17.77;;;5.60;;
44430;SDS011;30135;47.866;-4.222;2023-02-23T07:07:02;21.00;;;7.20;;
44430;SDS011;30135;47.866;-4.222;2023-02-23T07:09:29;21.80;;;7.00;;
44430;SDS011;30135;47.866;-4.222;2023-02-23T07:11:55;13.27;;;5.88;;
44430;SDS011;30135;47.866;-4.222;2023-02-23T07:14:21;10.45;;;4.45;;
44430;SDS011;30135;47.866;-4.222;2023-02-23T07:16:47;13.10;;;3.83;;
44430;SDS011;30135;47.866;-4.222;2023-02-23T07:19:13;10.68;;;4.35;;
44430;SDS011;30135;47.866;-4.222;2023-02-23T07:21:39;11.77;;;3.55;;
44430;SDS011;30135;47.866;-4.222;2023-02-23T07:24:05;9.00;;;3.40;;
44430;SDS011;30135;47.866;-4.222;2023-02-23T07:26:33;11.68;;;3.33;;
44430;SDS011;30135;47.866;-4.222;2023-02-23T07:29:00;11.73;;;3.85;;
44430;SDS011;30135;47.866;-4.222;2023-02-23T07:31:26;12.35;;;4.13;;
44430;SDS011;30135;47.866;-4.222;2023-02-23T07:33:53;9.27;;;4.00;;
44430;SDS011;30135;47.866;-4.222;2023-02-23T07:36:22;11.38;;;3.58;;
44430;SDS011;30135;47.866;-4.222;2023-02-23T07:38:49;5.38;;;2.10;;
44430;SDS011;30135;47.866;-4.222;2023-02-23T07:41:15;9.20;;;2.10;;
44430;SDS011;30135;47.866;-4.222;2023-02-23T07:43:41;9.15;;;2.72;;
44430;SDS011;30135;47.866;-4.222;2023-02-23T07:46:07;6.65;;;2.55;;
44430;SDS011;30135;47.866;-4.222;2023-02-23T07:48:33;8.13;;;2.22;;
44430;SDS011;30135;47.866;-4.222;2023-02-23T07:50:59;13.82;;;4.13;;
44430;SDS011;30135;47.866;-4.222;2023-02-23T07:53:25;8.52;;;3.60;;
44430;SDS011;30135;47.866;-4.222;2023-02-23T07:55:58;11.65;;;3.10;;
44430;SDS011;30135;47.866;-4.222;2023-02-23T07:58:25;15.43;;;3.63;;
44430;SDS011;30135;47.866;-4.222;2023-02-23T08:00:52;11.02;;;2.95;;
44430;SDS011;30135;47.866;-4.222;2023-02-23T08:03:19;9.82;;;4.32;;
44430;SDS011;30135;47.866;-4.222;2023-02-23T08:05:45;11.13;;;4.28;;
44430;SDS011;30135;47.866;-4.222;2023-02-23T08:08:11;16.48;;;3.72;;
44430;SDS011;30135;47.866;-4.222;2023-02-23T08:10:40;7.80;;;3.42;;
44430;SDS011;30135;47.866;-4.222;2023-02-23T08:13:06;10.98;;;3.42;;
44430;SDS011;30135;47.866;-4.222;2023-02-23T08:15:32;6.90;;;2.72;;
44430;SDS011;30135;47.866;-4.222;2023-02-23T08:17:58;7.47;;;2.50;;
44430;SDS011;30135;47.866;-4.222;2023-02-23T08:20:24;8.93;;;2.95;;
44430;SDS011;30135;47.866;-4.222;2023-02-23T08:22:52;6.82;;;2.55;;
44430;SDS011;30135;47.866;-4.222;2023-02-23T08:25:22;6.85;;;2.85;;
44430;SDS011;30135;47.866;-4.222;2023-02-23T08:27:49;8.25;;;2.55;;
44430;SDS011;30135;47.866;-4.222;2023-02-23T08:30:16;7.50;;;2.42;;
44430;SDS011;30135;47.866;-4.222;2023-02-23T08:32:45;2.15;;;1.30;;
44430;SDS011;30135;47.866;-4.222;2023-02-23T08:35:12;6.90;;;2.20;;
44430;SDS011;30135;47.866;-4.222;2023-02-23T08:37:39;10.48;;;2.58;;
44430;SDS011;30135;47.866;-4.222;2023-02-23T08:40:09;8.48;;;2.35;;
44430;SDS011;30135;47.866;-4.222;2023-02-23T08:45:09;7.63;;;2.53;;
44430;SDS011;30135;47.866;-4.222;2023-02-23T08:47:36;4.97;;;2.22;;
44430;SDS011;30135;47.866;-4.222;2023-02-23T08:50:03;7.38;;;2.40;;
44430;SDS011;30135;47.866;-4.222;2023-02-23T08:52:30;5.10;;;2.05;;
44430;SDS011;30135;47.866;-4.222;2023-02-23T08:54:56;7.25;;;2.13;;
44430;SDS011;30135;47.866;-4.222;2023-02-23T08:57:22;12.40;;;1.77;;
44430;SDS011;30135;47.866;-4.222;2023-02-23T08:59:48;9.90;;;2.42;;
44430;SDS011;30135;47.866;-4.222;2023-02-23T09:02:14;9.02;;;1.77;;
44430;SDS011;30135;47.866;-4.222;2023-02-23T09:04:41;13.93;;;1.85;;
44430;SDS011;30135;47.866;-4.222;2023-02-23T09:07:08;6.60;;;1.65;;
44430;SDS011;30135;47.866;-4.222;2023-02-23T09:09:38;4.68;;;1.55;;
44430;SDS011;30135;47.866;-4.222;2023-02-23T09:12:05;3.08;;;1.58;;
44430;SDS011;30135;47.866;-4.222;2023-02-23T09:14:31;5.63;;;1.67;;
44430;SDS011;30135;47.866;-4.222;2023-02-23T09:16:57;3.72;;;1.60;;
44430;SDS011;30135;47.866;-4.222;2023-02-23T09:19:23;6.47;;;1.60;;
44430;SDS011;30135;47.866;-4.222;2023-02-23T09:21:51;5.10;;;1.70;;
44430;SDS011;30135;47.866;-4.222;2023-02-23T09:24:18;4.72;;;1.48;;
44430;SDS011;30135;47.866;-4.222;2023-02-23T09:26:46;9.48;;;1.73;;
44430;SDS011;30135;47.866;-4.222;2023-02-23T09:29:13;3.30;;;1.08;;
44430;SDS011;30135;47.866;-4.222;2023-02-23T09:31:39;10.20;;;1.55;;
44430;SDS011;30135;47.866;-4.222;2023-02-23T09:34:07;2.85;;;0.82;;
44430;SDS011;30135;47.866;-4.222;2023-02-23T09:36:34;5.25;;;1.30;;
44430;SDS011;30135;47.866;-4.222;2023-02-23T09:39:00;3.92;;;1.80;;
44430;SDS011;30135;47.866;-4.222;2023-02-23T09:50:22;7.13;;;1.38;;
44430;SDS011;30135;47.866;-4.222;2023-02-23T09:52:55;3.83;;;1.17;;
44430;SDS011;30135;47.866;-4.222;2023-02-23T09:55:28;6.45;;;0.75;;
44430;SDS011;30135;47.866;-4.222;2023-02-23T09:57:55;3.45;;;1.40;;
44430;SDS011;30135;47.866;-4.222;2023-02-23T10:00:28;7.53;;;1.52;;
44430;SDS011;30135;47.866;-4.222;2023-02-23T10:03:07;2.45;;;1.05;;
44430;SDS011;30135;47.866;-4.222;2023-02-23T10:05:59;2.47;;;0.75;;
44430;SDS011;30135;47.866;-4.222;2023-02-23T10:17:10;5.80;;;1.13;;
44430;SDS011;30135;47.866;-4.222;2023-02-23T10:20:27;5.05;;;1.27;;
44430;SDS011;30135;47.866;-4.222;2023-02-23T10:23:20;3.90;;;1.38;;
44430;SDS011;30135;47.866;-4.222;2023-02-23T10:25:54;0.80;;;0.50;;
44430;SDS011;30135;47.866;-4.222;2023-02-23T10:28:24;4.38;;;0.93;;
44430;SDS011;30135;47.866;-4.222;2023-02-23T10:30:51;1.10;;;0.38;;
44430;SDS011;30135;47.866;-4.222;2023-02-23T10:33:19;3.28;;;0.85;;
44430;SDS011;30135;47.866;-4.222;2023-02-23T10:36:04;6.25;;;0.70;;
44430;SDS011;30135;47.866;-4.222;2023-02-23T10:38:55;7.05;;;1.02;;
44430;SDS011;30135;47.866;-4.222;2023-02-23T10:41:21;2.03;;;0.40;;
44430;SDS011;30135;47.866;-4.222;2023-02-23T10:43:47;5.70;;;1.02;;
44430;SDS011;30135;47.866;-4.222;2023-02-23T10:46:18;8.75;;;0.95;;
44430;SDS011;30135;47.866;-4.222;2023-02-23T10:48:49;2.70;;;0.45;;
44430;SDS011;30135;47.866;-4.222;2023-02-23T10:51:21;2.50;;;0.52;;
44430;SDS011;30135;47.866;-4.222;2023-02-23T10:53:53;3.60;;;0.57;;
44430;SDS011;30135;47.866;-4.222;2023-02-23T10:56:19;4.13;;;1.20;;
44430;SDS011;30135;47.866;-4.222;2023-02-23T10:58:51;8.20;;;2.20;;
44430;SDS011;30135;47.866;-4.222;2023-02-23T11:01:36;8.38;;;1.75;;
44430;SDS011;30135;47.866;-4.222;2023-02-23T11:06:43;1.85;;;0.90;;
44430;SDS011;30135;47.866;-4.222;2023-02-23T11:11:56;4.25;;;0.80;;
44430;SDS011;30135;47.866;-4.222;2023-02-23T11:14:29;2.50;;;0.90;;
44430;SDS011;30135;47.866;-4.222;2023-02-23T11:16:57;10.73;;;1.00;;
44430;SDS011;30135;47.866;-4.222;2023-02-23T11:19:34;7.90;;;1.00;;
44430;SDS011;30135;47.866;-4.222;2023-02-23T11:22:02;5.28;;;0.80;;
44430;SDS011;30135;47.866;-4.222;2023-02-23T11:24:38;1.88;;;0.63;;
44430;SDS011;30135;47.866;-4.222;2023-02-23T11:27:06;2.15;;;0.70;;
44430;SDS011;30135;47.866;-4.222;2023-02-23T11:29:45;5.13;;;0.50;;
44430;SDS011;30135;47.866;-4.222;2023-02-23T11:35:13;2.67;;;0.55;;
44430;SDS011;30135;47.866;-4.222;2023-02-23T11:37:45;2.90;;;0.70;;
44430;SDS011;30135;47.866;-4.222;2023-02-23T11:40:22;2.53;;;0.63;;
44430;SDS011;30135;47.866;-4.222;2023-02-23T11:48:20;3.72;;;1.23;;
44430;SDS011;30135;47.866;-4.222;2023-02-23T11:50:59;3.17;;;0.40;;
44430;SDS011;30135;47.866;-4.222;2023-02-23T11:53:30;4.68;;;0.45;;
44430;SDS011;30135;47.866;-4.222;2023-02-23T11:56:02;1.52;;;0.70;;
44430;SDS011;30135;47.866;-4.222;2023-02-23T11:58:39;4.28;;;0.70;;
44430;SDS011;30135;47.866;-4.222;2023-02-23T12:04:23;1.95;;;0.50;;
44430;SDS011;30135;47.866;-4.222;2023-02-23T12:07:17;3.42;;;0.40;;
44430;SDS011;30135;47.866;-4.222;2023-02-23T12:10:10;10.98;;;0.60;;
44430;SDS011;30135;47.866;-4.222;2023-02-23T12:15:53;2.50;;;0.57;;
44430;SDS011;30135;47.866;-4.222;2023-02-23T12:18:46;1.40;;;0.30;;
44430;SDS011;30135;47.866;-4.222;2023-02-23T12:21:42;3.03;;;0.80;;
44430;SDS011;30135;47.866;-4.222;2023-02-23T12:24:30;2.85;;;0.75;;
44430;SDS011;30135;47.866;-4.222;2023-02-23T12:27:32;2.55;;;0.50;;
44430;SDS011;30135;47.866;-4.222;2023-02-23T12:30:14;1.67;;;0.57;;
44430;SDS011;30135;47.866;-4.222;2023-02-23T12:32:50;5.82;;;0.30;;
44430;SDS011;30135;47.866;-4.222;2023-02-23T12:36:03;0.63;;;0.47;;
44430;SDS011;30135;47.866;-4.222;2023-02-23T12:38:43;1.65;;;0.47;;
44430;SDS011;30135;47.866;-4.222;2023-02-23T12:41:32;1.10;;;0.43;;
44430;SDS011;30135;47.866;-4.222;2023-02-23T12:44:30;2.85;;;0.45;;
44430;SDS011;30135;47.866;-4.222;2023-02-23T12:50:24;3.33;;;0.88;;
44430;SDS011;30135;47.866;-4.222;2023-02-23T13:05:42;1.10;;;0.20;;
44430;SDS011;30135;47.866;-4.222;2023-02-23T13:20:49;3.75;;;0.30;;
44430;SDS011;30135;47.866;-4.222;2023-02-23T13:26:27;3.00;;;0.30;;
44430;SDS011;30135;47.866;-4.222;2023-02-23T13:32:44;5.50;;;0.63;;
44430;SDS011;30135;47.866;-4.222;2023-02-23T13:35:17;1.85;;;0.65;;
44430;SDS011;30135;47.866;-4.222;2023-02-23T13:40:23;1.17;;;0.40;;
44430;SDS011;30135;47.866;-4.222;2023-02-23T13:43:28;1.40;;;0.50;;
44430;SDS011;30135;47.866;-4.222;2023-02-23T13:52:28;1.90;;;0.22;;
44430;SDS011;30135;47.866;-4.222;2023-02-23T13:54:59;10.68;;;0.45;;
44430;SDS011;30135;47.866;-4.222;2023-02-23T13:57:30;6.07;;;0.50;;
44430;SDS011;30135;47.866;-4.222;2023-02-23T13:59:57;4.45;;;0.52;;
44430;SDS011;30135;47.866;-4.222;2023-02-23T14:02:35;3.72;;;0.85;;
44430;SDS011;30135;47.866;-4.222;2023-02-23T14:05:06;1.90;;;0.30;;
44430;SDS011;30135;47.866;-4.222;2023-02-23T14:07:55;2.25;;;1.13;;
44430;SDS011;30135;47.866;-4.222;2023-02-23T14:10:37;1.40;;;0.63;;
44430;SDS011;30135;47.866;-4.222;2023-02-23T14:15:43;1.25;;;0.28;;
44430;SDS011;30135;47.866;-4.222;2023-02-23T14:20:53;0.25;;;0.10;;
44430;SDS011;30135;47.866;-4.222;2023-02-23T14:23:53;2.08;;;0.45;;
44430;SDS011;30135;47.866;-4.222;2023-02-23T14:26:43;5.20;;;0.52;;
44430;SDS011;30135;47.866;-4.222;2023-02-23T14:32:43;1.00;;;0.20;;
44430;SDS011;30135;47.866;-4.222;2023-02-23T14:38:04;0.93;;;0.30;;
44430;SDS011;30135;47.866;-4.222;2023-02-23T14:40:42;2.95;;;0.98;;
44430;SDS011;30135;47.866;-4.222;2023-02-23T14:46:07;2.55;;;0.45;;
44430;SDS011;30135;47.866;-4.222;2023-02-23T14:49:09;2.42;;;0.40;;
44430;SDS011;30135;47.866;-4.222;2023-02-23T14:51:45;1.05;;;0.25;;
44430;SDS011;30135;47.866;-4.222;2023-02-23T14:54:35;1.52;;;0.32;;
44430;SDS011;30135;47.866;-4.222;2023-02-23T14:57:04;5.47;;;0.80;;
44430;SDS011;30135;47.866;-4.222;2023-02-23T14:59:57;1.55;;;0.40;;
44430;SDS011;30135;47.866;-4.222;2023-02-23T15:02:27;3.63;;;0.38;;
44430;SDS011;30135;47.866;-4.222;2023-02-23T15:04:55;3.28;;;0.30;;
44430;SDS011;30135;47.866;-4.222;2023-02-23T15:07:25;1.95;;;0.77;;
44430;SDS011;30135;47.866;-4.222;2023-02-23T15:10:01;1.38;;;0.30;;
44430;SDS011;30135;47.866;-4.222;2023-02-23T15:12:52;1.75;;;0.50;;
44430;SDS011;30135;47.866;-4.222;2023-02-23T15:15:20;0.77;;;0.20;;
44430;SDS011;30135;47.866;-4.222;2023-02-23T15:20:18;2.50;;;0.43;;
44430;SDS011;30135;47.866;-4.222;2023-02-23T15:22:53;0.40;;;0.22;;
44430;SDS011;30135;47.866;-4.222;2023-02-23T15:25:31;5.68;;;0.45;;
44430;SDS011;30135;47.866;-4.222;2023-02-23T15:28:23;1.73;;;0.50;;
44430;SDS011;30135;47.866;-4.222;2023-02-23T15:31:00;1.67;;;0.55;;
44430;SDS011;30135;47.866;-4.222;2023-02-23T15:33:28;0.73;;;0.30;;
44430;SDS011;30135;47.866;-4.222;2023-02-23T15:38:31;1.33;;;0.47;;
44430;SDS011;30135;47.866;-4.222;2023-02-23T15:41:03;2.30;;;0.60;;
44430;SDS011;30135;47.866;-4.222;2023-02-23T15:43:32;2.53;;;0.47;;
44430;SDS011;30135;47.866;-4.222;2023-02-23T15:46:00;0.80;;;0.30;;
44430;SDS011;30135;47.866;-4.222;2023-02-23T15:49:03;4.60;;;0.60;;
44430;SDS011;30135;47.866;-4.222;2023-02-23T15:54:01;4.30;;;1.13;;
44430;SDS011;30135;47.866;-4.222;2023-02-23T15:56:38;3.50;;;1.25;;
44430;SDS011;30135;47.866;-4.222;2023-02-23T15:59:07;4.88;;;1.02;;
44430;SDS011;30135;47.866;-4.222;2023-02-23T16:01:45;1.75;;;1.13;;
44430;SDS011;30135;47.866;-4.222;2023-02-23T16:06:39;3.20;;;1.25;;
44430;SDS011;30135;47.866;-4.222;2023-02-23T16:09:45;3.90;;;1.60;;
44430;SDS011;30135;47.866;-4.222;2023-02-23T16:12:34;3.92;;;1.30;;
44430;SDS011;30135;47.866;-4.222;2023-02-23T16:15:03;5.97;;;1.92;;
44430;SDS011;30135;47.866;-4.222;2023-02-23T16:17:44;3.13;;;1.15;;
44430;SDS011;30135;47.866;-4.222;2023-02-23T16:20:15;4.25;;;1.45;;
44430;SDS011;30135;47.866;-4.222;2023-02-23T16:22:58;5.53;;;1.52;;
44430;SDS011;30135;47.866;-4.222;2023-02-23T16:25:27;4.35;;;1.45;;
44430;SDS011;30135;47.866;-4.222;2023-02-23T16:27:56;7.20;;;2.10;;
44430;SDS011;30135;47.866;-4.222;2023-02-23T16:30:33;6.60;;;2.45;;
44430;SDS011;30135;47.866;-4.222;2023-02-23T16:35:49;7.57;;;2.38;;
44430;SDS011;30135;47.866;-4.222;2023-02-23T16:38:41;7.32;;;2.92;;
44430;SDS011;30135;47.866;-4.222;2023-02-23T16:41:28;8.10;;;2.95;;
44430;SDS011;30135;47.866;-4.222;2023-02-23T16:43:59;6.23;;;2.57;;
44430;SDS011;30135;47.866;-4.222;2023-02-23T16:46:56;14.13;;;2.80;;
44430;SDS011;30135;47.866;-4.222;2023-02-23T16:49:32;9.10;;;2.85;;
44430;SDS011;30135;47.866;-4.222;2023-02-23T16:51:58;8.43;;;2.83;;
44430;SDS011;30135;47.866;-4.222;2023-02-23T16:54:25;8.90;;;2.97;;
44430;SDS011;30135;47.866;-4.222;2023-02-23T16:56:52;8.27;;;3.83;;
44430;SDS011;30135;47.866;-4.222;2023-02-23T16:59:20;6.82;;;4.15;;
44430;SDS011;30135;47.866;-4.222;2023-02-23T17:01:47;9.93;;;3.67;;
44430;SDS011;30135;47.866;-4.222;2023-02-23T17:04:19;8.50;;;3.55;;
44430;SDS011;30135;47.866;-4.222;2023-02-23T17:06:46;9.35;;;3.17;;
44430;SDS011;30135;47.866;-4.222;2023-02-23T17:09:21;10.13;;;3.25;;
44430;SDS011;30135;47.866;-4.222;2023-02-23T17:11:48;8.63;;;3.47;;
44430;SDS011;30135;47.866;-4.222;2023-02-23T17:14:24;9.43;;;4.53;;
44430;SDS011;30135;47.866;-4.222;2023-02-23T17:16:56;11.38;;;3.67;;
44430;SDS011;30135;47.866;-4.222;2023-02-23T17:19:22;10.48;;;4.07;;
44430;SDS011;30135;47.866;-4.222;2023-02-23T17:21:48;8.40;;;3.92;;
44430;SDS011;30135;47.866;-4.222;2023-02-23T17:24:14;8.90;;;3.95;;
44430;SDS011;30135;47.866;-4.222;2023-02-23T17:26:40;8.88;;;4.15;;
44430;SDS011;30135;47.866;-4.222;2023-02-23T17:29:07;9.02;;;3.03;;
44430;SDS011;30135;47.866;-4.222;2023-02-23T17:31:40;8.13;;;4.28;;
44430;SDS011;30135;47.866;-4.222;2023-02-23T17:34:06;6.30;;;3.53;;
44430;SDS011;30135;47.866;-4.222;2023-02-23T17:36:32;8.90;;;4.22;;
44430;SDS011;30135;47.866;-4.222;2023-02-23T17:38:58;10.27;;;4.13;;
44430;SDS011;30135;47.866;-4.222;2023-02-23T17:41:24;8.25;;;3.65;;
44430;SDS011;30135;47.866;-4.222;2023-02-23T17:43:51;7.38;;;3.28;;
44430;SDS011;30135;47.866;-4.222;2023-02-23T17:46:17;14.05;;;3.63;;
44430;SDS011;30135;47.866;-4.222;2023-02-23T17:48:43;7.30;;;3.40;;